sensor_id;sensor_type;location;lat;lon;timestamp;P1;durP1;ratioP1;P2;durP2;ratioP2
20026;SDS011;10174;42.688;23.344;2023-02-23T00:01:35;75.63;;;31.75;;
20026;SDS011;10174;42.688;23.344;2023-02-23T00:04:01;80.65;;;32.55;;
20026;SDS011;10174;42.688;23.344;2023-02-23T00:06:28;79.10;;;31.02;;
20026;SDS011;10174;42.688;23.344;2023-02-23T00:08:54;69.82;;;32.03;;
20026;SDS011;10174;42.688;23.344;2023-02-23T00:11:22;82.05;;;33.25;;
20026;SDS011;10174;42.688;23.344;2023-02-23T00:13:48;77.88;;;32.17;;
20026;SDS011;10174;42.688;23.344;2023-02-23T00:16:15;79.50;;;32.47;;
20026;SDS011;10174;42.688;23.344;2023-02-23T00:18:46;76.15;;;32.05;;
20026;SDS011;10174;42.688;23.344;2023-02-23T00:21:15;76.82;;;30.63;;
20026;SDS011;10174;42.688;23.344;2023-02-23T00:23:46;71.68;;;30.40;;
20026;SDS011;10174;42.688;23.344;2023-02-23T00:26:20;73.05;;;30.63;;
20026;SDS011;10174;42.688;23.344;2023-02-23T00:28:47;72.88;;;31.77;;
20026;SDS011;10174;42.688;23.344;2023-02-23T00:31:15;77.00;;;32.88;;
20026;SDS011;10174;42.688;23.344;2023-02-23T00:33:41;77.00;;;32.25;;
20026;SDS011;10174;42.688;23.344;2023-02-23T00:36:08;73.55;;;32.05;;
20026;SDS011;10174;42.688;23.344;2023-02-23T00:38:35;79.38;;;31.80;;
20026;SDS011;10174;42.688;23.344;2023-02-23T00:41:04;77.90;;;32.10;;
20026;SDS011;10174;42.688;23.344;2023-02-23T00:43:35;72.70;;;32.15;;
20026;SDS011;10174;42.688;23.344;2023-02-23T00:46:02;79.43;;;32.45;;
20026;SDS011;10174;42.688;23.344;2023-02-23T00:48:34;66.20;;;31.00;;
20026;SDS011;10174;42.688;23.344;2023-02-23T00:51:03;75.82;;;32.58;;
20026;SDS011;10174;42.688;23.344;2023-02-23T00:53:29;71.72;;;30.60;;
20026;SDS011;10174;42.688;23.344;2023-02-23T00:55:56;65.72;;;30.55;;
20026;SDS011;10174;42.688;23.344;2023-02-23T00:58:24;68.35;;;30.98;;
20026;SDS011;10174;42.688;23.344;2023-02-23T01:00:50;76.40;;;31.73;;
20026;SDS011;10174;42.688;23.344;2023-02-23T01:03:16;81.07;;;31.00;;
20026;SDS011;10174;42.688;23.344;2023-02-23T01:05:42;65.45;;;28.20;;
20026;SDS011;10174;42.688;23.344;2023-02-23T01:08:08;58.67;;;27.90;;
20026;SDS011;10174;42.688;23.344;2023-02-23T01:10:38;62.78;;;28.70;;
20026;SDS011;10174;42.688;23.344;2023-02-23T01:13:05;67.00;;;27.77;;
20026;SDS011;10174;42.688;23.344;2023-02-23T01:15:30;57.42;;;26.45;;
20026;SDS011;10174;42.688;23.344;2023-02-23T01:17:56;63.55;;;26.85;;
20026;SDS011;10174;42.688;23.344;2023-02-23T01:20:22;55.90;;;26.65;;
20026;SDS011;10174;42.688;23.344;2023-02-23T01:22:48;56.70;;;26.67;;
20026;SDS011;10174;42.688;23.344;2023-02-23T01:25:16;52.42;;;25.52;;
20026;SDS011;10174;42.688;23.344;2023-02-23T01:27:42;59.60;;;26.05;;
20026;SDS011;10174;42.688;23.344;2023-02-23T01:30:09;53.97;;;26.33;;
20026;SDS011;10174;42.688;23.344;2023-02-23T01:32:36;52.55;;;24.67;;
20026;SDS011;10174;42.688;23.344;2023-02-23T01:35:03;53.92;;;25.20;;
20026;SDS011;10174;42.688;23.344;2023-02-23T01:37:30;58.05;;;24.75;;
20026;SDS011;10174;42.688;23.344;2023-02-23T01:39:59;52.33;;;25.30;;
20026;SDS011;10174;42.688;23.344;2023-02-23T01:42:25;55.63;;;25.60;;
20026;SDS011;10174;42.688;23.344;2023-02-23T01:47:43;69.00;;;24.98;;
20026;SDS011;10174;42.688;23.344;2023-02-23T01:50:09;58.90;;;24.70;;
20026;SDS011;10174;42.688;23.344;2023-02-23T01:52:36;56.95;;;25.10;;
20026;SDS011;10174;42.688;23.344;2023-02-23T01:55:02;51.55;;;24.52;;
20026;SDS011;10174;42.688;23.344;2023-02-23T01:57:30;43.95;;;21.90;;
20026;SDS011;10174;42.688;23.344;2023-02-23T01:59:56;53.10;;;21.17;;
20026;SDS011;10174;42.688;23.344;2023-02-23T02:02:22;44.25;;;20.23;;
20026;SDS011;10174;42.688;23.344;2023-02-23T02:04:57;46.92;;;21.05;;
20026;SDS011;10174;42.688;23.344;2023-02-23T02:07:25;50.30;;;21.05;;
20026;SDS011;10174;42.688;23.344;2023-02-23T02:09:53;45.58;;;21.27;;
20026;SDS011;10174;42.688;23.344;2023-02-23T02:12:45;53.13;;;21.80;;
20026;SDS011;10174;42.688;23.344;2023-02-23T02:15:16;49.80;;;21.58;;
20026;SDS011;10174;42.688;23.344;2023-02-23T02:26:33;46.70;;;22.13;;
20026;SDS011;10174;42.688;23.344;2023-02-23T02:35:25;61.83;;;27.33;;
20026;SDS011;10174;42.688;23.344;2023-02-23T02:41:09;74.28;;;29.13;;
20026;SDS011;10174;42.688;23.344;2023-02-23T02:51:26;69.90;;;32.67;;
20026;SDS011;10174;42.688;23.344;2023-02-23T02:54:33;74.20;;;31.25;;
20026;SDS011;10174;42.688;23.344;2023-02-23T02:57:08;75.50;;;33.58;;
20026;SDS011;10174;42.688;23.344;2023-02-23T02:59:46;82.25;;;35.05;;
20026;SDS011;10174;42.688;23.344;2023-02-23T03:02:32;83.15;;;34.15;;
20026;SDS011;10174;42.688;23.344;2023-02-23T03:05:19;79.95;;;34.67;;
20026;SDS011;10174;42.688;23.344;2023-02-23T03:08:19;80.18;;;33.83;;
20026;SDS011;10174;42.688;23.344;2023-02-23T03:11:12;85.93;;;35.38;;
20026;SDS011;10174;42.688;23.344;2023-02-23T03:20:25;87.95;;;36.40;;
20026;SDS011;10174;42.688;23.344;2023-02-23T03:26:08;83.95;;;36.92;;
20026;SDS011;10174;42.688;23.344;2023-02-23T03:32:11;94.28;;;37.67;;
20026;SDS011;10174;42.688;23.344;2023-02-23T03:40:53;87.53;;;37.08;;
20026;SDS011;10174;42.688;23.344;2023-02-23T03:43:44;85.03;;;37.10;;
20026;SDS011;10174;42.688;23.344;2023-02-23T03:46:35;89.35;;;37.92;;
20026;SDS011;10174;42.688;23.344;2023-02-23T03:49:21;87.35;;;38.38;;
20026;SDS011;10174;42.688;23.344;2023-02-23T03:52:12;99.53;;;40.30;;
20026;SDS011;10174;42.688;23.344;2023-02-23T03:55:02;103.13;;;40.80;;
20026;SDS011;10174;42.688;23.344;2023-02-23T03:57:57;105.82;;;41.83;;
20026;SDS011;10174;42.688;23.344;2023-02-23T04:00:44;94.68;;;41.83;;
20026;SDS011;10174;42.688;23.344;2023-02-23T04:03:32;94.90;;;42.47;;
20026;SDS011;10174;42.688;23.344;2023-02-23T04:06:20;98.85;;;42.88;;
20026;SDS011;10174;42.688;23.344;2023-02-23T04:09:08;102.85;;;43.65;;
20026;SDS011;10174;42.688;23.344;2023-02-23T04:17:08;94.40;;;45.17;;
20026;SDS011;10174;42.688;23.344;2023-02-23T04:19:35;101.45;;;45.63;;
20026;SDS011;10174;42.688;23.344;2023-02-23T04:22:00;100.97;;;47.75;;
20026;SDS011;10174;42.688;23.344;2023-02-23T04:24:25;107.68;;;45.83;;
20026;SDS011;10174;42.688;23.344;2023-02-23T04:26:51;106.50;;;47.15;;
20026;SDS011;10174;42.688;23.344;2023-02-23T04:29:16;108.72;;;47.33;;
20026;SDS011;10174;42.688;23.344;2023-02-23T04:31:42;107.38;;;47.03;;
20026;SDS011;10174;42.688;23.344;2023-02-23T04:34:07;107.68;;;46.05;;
20026;SDS011;10174;42.688;23.344;2023-02-23T04:36:32;99.32;;;44.67;;
20026;SDS011;10174;42.688;23.344;2023-02-23T04:38:58;110.47;;;48.22;;
20026;SDS011;10174;42.688;23.344;2023-02-23T04:41:23;110.88;;;47.83;;
20026;SDS011;10174;42.688;23.344;2023-02-23T04:43:49;113.88;;;48.97;;
20026;SDS011;10174;42.688;23.344;2023-02-23T04:46:14;111.55;;;48.40;;
20026;SDS011;10174;42.688;23.344;2023-02-23T04:48:39;103.72;;;46.10;;
20026;SDS011;10174;42.688;23.344;2023-02-23T04:51:05;112.80;;;46.05;;
20026;SDS011;10174;42.688;23.344;2023-02-23T04:53:30;113.22;;;47.20;;
20026;SDS011;10174;42.688;23.344;2023-02-23T04:55:56;104.78;;;45.13;;
20026;SDS011;10174;42.688;23.344;2023-02-23T04:58:21;95.72;;;44.00;;
20026;SDS011;10174;42.688;23.344;2023-02-23T05:00:47;101.18;;;43.75;;
20026;SDS011;10174;42.688;23.344;2023-02-23T05:03:13;107.43;;;44.28;;
20026;SDS011;10174;42.688;23.344;2023-02-23T05:05:38;106.00;;;46.03;;
20026;SDS011;10174;42.688;23.344;2023-02-23T05:08:04;110.63;;;43.88;;
20026;SDS011;10174;42.688;23.344;2023-02-23T05:10:30;106.90;;;42.53;;
20026;SDS011;10174;42.688;23.344;2023-02-23T05:12:56;104.85;;;43.67;;
20026;SDS011;10174;42.688;23.344;2023-02-23T05:15:21;100.95;;;42.15;;
20026;SDS011;10174;42.688;23.344;2023-02-23T05:17:47;115.60;;;44.17;;
20026;SDS011;10174;42.688;23.344;2023-02-23T05:20:12;105.72;;;43.08;;
20026;SDS011;10174;42.688;23.344;2023-02-23T05:22:38;112.35;;;43.40;;
20026;SDS011;10174;42.688;23.344;2023-02-23T05:25:04;90.22;;;38.55;;
20026;SDS011;10174;42.688;23.344;2023-02-23T05:27:31;97.75;;;38.00;;
20026;SDS011;10174;42.688;23.344;2023-02-23T05:29:58;91.68;;;39.58;;
20026;SDS011;10174;42.688;23.344;2023-02-23T05:32:23;102.88;;;40.65;;
20026;SDS011;10174;42.688;23.344;2023-02-23T05:34:49;101.10;;;39.95;;
20026;SDS011;10174;42.688;23.344;2023-02-23T05:37:14;100.47;;;38.53;;
20026;SDS011;10174;42.688;23.344;2023-02-23T05:39:39;94.55;;;37.13;;
20026;SDS011;10174;42.688;23.344;2023-02-23T05:42:05;85.78;;;38.28;;
20026;SDS011;10174;42.688;23.344;2023-02-23T05:44:30;106.50;;;40.35;;
20026;SDS011;10174;42.688;23.344;2023-02-23T05:46:56;97.78;;;38.65;;
20026;SDS011;10174;42.688;23.344;2023-02-23T05:49:21;98.47;;;40.25;;
20026;SDS011;10174;42.688;23.344;2023-02-23T05:51:47;92.63;;;38.85;;
20026;SDS011;10174;42.688;23.344;2023-02-23T05:54:12;97.75;;;38.55;;
20026;SDS011;10174;42.688;23.344;2023-02-23T05:56:38;89.00;;;39.40;;
20026;SDS011;10174;42.688;23.344;2023-02-23T05:59:04;106.63;;;41.47;;
20026;SDS011;10174;42.688;23.344;2023-02-23T06:01:30;102.68;;;40.25;;
20026;SDS011;10174;42.688;23.344;2023-02-23T06:03:55;95.70;;;39.65;;
20026;SDS011;10174;42.688;23.344;2023-02-23T06:06:21;120.88;;;40.58;;
20026;SDS011;10174;42.688;23.344;2023-02-23T06:08:49;101.72;;;40.45;;
20026;SDS011;10174;42.688;23.344;2023-02-23T06:11:15;111.15;;;39.67;;
20026;SDS011;10174;42.688;23.344;2023-02-23T06:13:41;97.40;;;39.10;;
20026;SDS011;10174;42.688;23.344;2023-02-23T06:16:06;112.35;;;41.90;;
20026;SDS011;10174;42.688;23.344;2023-02-23T06:18:32;108.13;;;39.28;;
20026;SDS011;10174;42.688;23.344;2023-02-23T06:20:58;104.55;;;39.13;;
20026;SDS011;10174;42.688;23.344;2023-02-23T06:23:25;92.10;;;38.42;;
20026;SDS011;10174;42.688;23.344;2023-02-23T06:25:51;96.07;;;36.80;;
20026;SDS011;10174;42.688;23.344;2023-02-23T06:28:17;86.22;;;34.85;;
20026;SDS011;10174;42.688;23.344;2023-02-23T06:30:42;88.00;;;33.30;;
20026;SDS011;10174;42.688;23.344;2023-02-23T06:33:08;79.63;;;36.00;;
20026;SDS011;10174;42.688;23.344;2023-02-23T06:35:33;63.28;;;30.13;;
20026;SDS011;10174;42.688;23.344;2023-02-23T06:37:59;64.90;;;30.80;;
20026;SDS011;10174;42.688;23.344;2023-02-23T06:40:26;74.80;;;30.65;;
20026;SDS011;10174;42.688;23.344;2023-02-23T06:42:51;71.00;;;30.55;;
20026;SDS011;10174;42.688;23.344;2023-02-23T06:45:16;95.50;;;44.28;;
20026;SDS011;10174;42.688;23.344;2023-02-23T06:47:43;101.03;;;43.42;;
20026;SDS011;10174;42.688;23.344;2023-02-23T06:50:09;84.93;;;36.85;;
20026;SDS011;10174;42.688;23.344;2023-02-23T06:52:35;90.50;;;35.75;;
20026;SDS011;10174;42.688;23.344;2023-02-23T06:55:00;91.97;;;40.13;;
20026;SDS011;10174;42.688;23.344;2023-02-23T06:57:26;83.82;;;34.97;;
20026;SDS011;10174;42.688;23.344;2023-02-23T06:59:51;82.97;;;36.15;;
20026;SDS011;10174;42.688;23.344;2023-02-23T07:02:17;89.47;;;42.38;;
20026;SDS011;10174;42.688;23.344;2023-02-23T07:04:43;93.72;;;40.17;;
20026;SDS011;10174;42.688;23.344;2023-02-23T07:07:08;95.43;;;42.03;;
20026;SDS011;10174;42.688;23.344;2023-02-23T07:09:34;91.80;;;41.53;;
20026;SDS011;10174;42.688;23.344;2023-02-23T07:12:00;100.28;;;42.53;;
20026;SDS011;10174;42.688;23.344;2023-02-23T07:14:25;92.20;;;42.05;;
20026;SDS011;10174;42.688;23.344;2023-02-23T07:16:51;107.35;;;41.95;;
20026;SDS011;10174;42.688;23.344;2023-02-23T07:19:16;106.57;;;43.78;;
20026;SDS011;10174;42.688;23.344;2023-02-23T07:21:41;82.13;;;39.53;;
20026;SDS011;10174;42.688;23.344;2023-02-23T07:24:07;99.68;;;41.50;;
20026;SDS011;10174;42.688;23.344;2023-02-23T07:26:33;84.80;;;39.38;;
20026;SDS011;10174;42.688;23.344;2023-02-23T07:28:59;88.05;;;38.80;;
20026;SDS011;10174;42.688;23.344;2023-02-23T07:31:25;88.72;;;38.00;;
20026;SDS011;10174;42.688;23.344;2023-02-23T07:33:51;99.35;;;41.38;;
20026;SDS011;10174;42.688;23.344;2023-02-23T07:36:19;124.50;;;52.72;;
20026;SDS011;10174;42.688;23.344;2023-02-23T07:38:48;98.88;;;40.72;;
20026;SDS011;10174;42.688;23.344;2023-02-23T07:41:13;100.00;;;42.67;;
20026;SDS011;10174;42.688;23.344;2023-02-23T07:43:38;97.18;;;39.97;;
20026;SDS011;10174;42.688;23.344;2023-02-23T07:46:04;96.85;;;41.15;;
20026;SDS011;10174;42.688;23.344;2023-02-23T07:48:30;87.00;;;39.63;;
20026;SDS011;10174;42.688;23.344;2023-02-23T07:50:56;96.78;;;39.33;;
20026;SDS011;10174;42.688;23.344;2023-02-23T07:53:22;89.90;;;38.72;;
20026;SDS011;10174;42.688;23.344;2023-02-23T07:55:57;92.18;;;38.55;;
20026;SDS011;10174;42.688;23.344;2023-02-23T07:58:24;89.85;;;38.50;;
20026;SDS011;10174;42.688;23.344;2023-02-23T08:00:50;87.07;;;36.33;;
20026;SDS011;10174;42.688;23.344;2023-02-23T08:03:15;77.13;;;33.15;;
20026;SDS011;10174;42.688;23.344;2023-02-23T08:05:41;74.10;;;32.65;;
20026;SDS011;10174;42.688;23.344;2023-02-23T08:08:08;70.78;;;32.00;;
20026;SDS011;10174;42.688;23.344;2023-02-23T08:10:35;74.95;;;33.30;;
20026;SDS011;10174;42.688;23.344;2023-02-23T08:13:01;75.85;;;33.47;;
20026;SDS011;10174;42.688;23.344;2023-02-23T08:15:26;70.05;;;32.00;;
20026;SDS011;10174;42.688;23.344;2023-02-23T08:17:52;80.32;;;32.30;;
20026;SDS011;10174;42.688;23.344;2023-02-23T08:20:17;65.60;;;29.92;;
20026;SDS011;10174;42.688;23.344;2023-02-23T08:22:43;58.60;;;28.63;;
20026;SDS011;10174;42.688;23.344;2023-02-23T08:25:08;64.78;;;29.30;;
20026;SDS011;10174;42.688;23.344;2023-02-23T08:27:35;63.53;;;29.50;;
20026;SDS011;10174;42.688;23.344;2023-02-23T08:30:01;71.55;;;29.60;;
20026;SDS011;10174;42.688;23.344;2023-02-23T08:32:31;59.65;;;28.17;;
20026;SDS011;10174;42.688;23.344;2023-02-23T08:34:59;59.13;;;27.52;;
20026;SDS011;10174;42.688;23.344;2023-02-23T08:37:26;62.95;;;30.13;;
20026;SDS011;10174;42.688;23.344;2023-02-23T08:39:53;58.28;;;27.45;;
20026;SDS011;10174;42.688;23.344;2023-02-23T08:42:19;64.85;;;25.67;;
20026;SDS011;10174;42.688;23.344;2023-02-23T08:44:44;78.30;;;36.00;;
20026;SDS011;10174;42.688;23.344;2023-02-23T08:47:10;52.08;;;26.17;;
20026;SDS011;10174;42.688;23.344;2023-02-23T08:49:36;63.88;;;26.15;;
20026;SDS011;10174;42.688;23.344;2023-02-23T08:54:26;50.65;;;24.00;;
20026;SDS011;10174;42.688;23.344;2023-02-23T08:56:54;45.67;;;20.75;;
20026;SDS011;10174;42.688;23.344;2023-02-23T08:59:21;54.40;;;24.55;;
20026;SDS011;10174;42.688;23.344;2023-02-23T09:01:47;53.67;;;23.45;;
20026;SDS011;10174;42.688;23.344;2023-02-23T09:04:12;44.33;;;22.63;;
20026;SDS011;10174;42.688;23.344;2023-02-23T09:06:38;51.60;;;22.67;;
20026;SDS011;10174;42.688;23.344;2023-02-23T09:09:05;58.47;;;23.13;;
20026;SDS011;10174;42.688;23.344;2023-02-23T09:11:31;52.58;;;24.88;;
20026;SDS011;10174;42.688;23.344;2023-02-23T09:13:56;49.05;;;24.20;;
20026;SDS011;10174;42.688;23.344;2023-02-23T09:16:22;47.60;;;22.13;;
20026;SDS011;10174;42.688;23.344;2023-02-23T09:18:48;46.58;;;22.48;;
20026;SDS011;10174;42.688;23.344;2023-02-23T09:23:42;29.67;;;15.25;;
20026;SDS011;10174;42.688;23.344;2023-02-23T09:26:10;32.25;;;13.70;;
20026;SDS011;10174;42.688;23.344;2023-02-23T09:28:37;33.47;;;15.05;;
20026;SDS011;10174;42.688;23.344;2023-02-23T09:31:05;29.08;;;14.93;;
20026;SDS011;10174;42.688;23.344;2023-02-23T09:33:32;28.17;;;13.48;;
20026;SDS011;10174;42.688;23.344;2023-02-23T09:35:57;37.15;;;14.40;;
20026;SDS011;10174;42.688;23.344;2023-02-23T09:38:23;34.60;;;14.32;;
20026;SDS011;10174;42.688;23.344;2023-02-23T09:40:49;84.07;;;42.95;;
20026;SDS011;10174;42.688;23.344;2023-02-23T09:43:25;48.17;;;21.83;;
20026;SDS011;10174;42.688;23.344;2023-02-23T09:46:30;31.95;;;13.40;;
20026;SDS011;10174;42.688;23.344;2023-02-23T09:49:04;27.48;;;13.18;;
20026;SDS011;10174;42.688;23.344;2023-02-23T09:51:36;22.50;;;11.35;;
20026;SDS011;10174;42.688;23.344;2023-02-23T09:54:04;30.25;;;11.70;;
20026;SDS011;10174;42.688;23.344;2023-02-23T09:56:36;22.33;;;10.77;;
20026;SDS011;10174;42.688;23.344;2023-02-23T09:59:10;24.90;;;12.02;;
20026;SDS011;10174;42.688;23.344;2023-02-23T10:23:42;28.55;;;11.57;;
20026;SDS011;10174;42.688;23.344;2023-02-23T10:26:16;26.10;;;14.30;;
20026;SDS011;10174;42.688;23.344;2023-02-23T10:28:46;35.25;;;14.63;;
20026;SDS011;10174;42.688;23.344;2023-02-23T10:31:23;27.45;;;12.65;;
20026;SDS011;10174;42.688;23.344;2023-02-23T10:34:12;34.00;;;13.23;;
20026;SDS011;10174;42.688;23.344;2023-02-23T10:37:00;28.55;;;13.15;;
20026;SDS011;10174;42.688;23.344;2023-02-23T10:39:29;28.95;;;13.63;;
20026;SDS011;10174;42.688;23.344;2023-02-23T10:41:57;27.27;;;12.70;;
20026;SDS011;10174;42.688;23.344;2023-02-23T10:44:26;26.70;;;13.50;;
20026;SDS011;10174;42.688;23.344;2023-02-23T10:47:14;26.55;;;12.48;;
20026;SDS011;10174;42.688;23.344;2023-02-23T10:49:44;30.05;;;12.77;;
20026;SDS011;10174;42.688;23.344;2023-02-23T10:52:17;32.47;;;13.93;;
20026;SDS011;10174;42.688;23.344;2023-02-23T10:54:48;29.60;;;14.23;;
20026;SDS011;10174;42.688;23.344;2023-02-23T10:57:32;62.25;;;30.83;;
20026;SDS011;10174;42.688;23.344;2023-02-23T11:02:27;21.63;;;10.95;;
20026;SDS011;10174;42.688;23.344;2023-02-23T11:04:55;25.63;;;12.57;;
20026;SDS011;10174;42.688;23.344;2023-02-23T11:07:24;20.98;;;10.35;;
20026;SDS011;10174;42.688;23.344;2023-02-23T11:09:54;27.73;;;12.10;;
20026;SDS011;10174;42.688;23.344;2023-02-23T11:12:36;23.73;;;11.45;;
20026;SDS011;10174;42.688;23.344;2023-02-23T11:17:53;20.30;;;9.48;;
20026;SDS011;10174;42.688;23.344;2023-02-23T11:20:32;24.35;;;9.70;;
20026;SDS011;10174;42.688;23.344;2023-02-23T11:25:41;21.85;;;10.15;;
20026;SDS011;10174;42.688;23.344;2023-02-23T11:28:15;28.20;;;10.65;;
20026;SDS011;10174;42.688;23.344;2023-02-23T11:30:46;20.05;;;8.63;;
20026;SDS011;10174;42.688;23.344;2023-02-23T11:33:16;16.52;;;7.88;;
20026;SDS011;10174;42.688;23.344;2023-02-23T11:35:47;23.33;;;9.93;;
20026;SDS011;10174;42.688;23.344;2023-02-23T11:38:22;19.45;;;9.63;;
20026;SDS011;10174;42.688;23.344;2023-02-23T11:41:04;13.93;;;7.72;;
20026;SDS011;10174;42.688;23.344;2023-02-23T11:43:31;14.55;;;6.22;;
20026;SDS011;10174;42.688;23.344;2023-02-23T11:45:57;21.55;;;6.70;;
20026;SDS011;10174;42.688;23.344;2023-02-23T11:48:32;12.82;;;6.70;;
20026;SDS011;10174;42.688;23.344;2023-02-23T11:51:02;12.38;;;6.38;;
20026;SDS011;10174;42.688;23.344;2023-02-23T11:53:36;13.27;;;6.38;;
20026;SDS011;10174;42.688;23.344;2023-02-23T11:56:07;12.95;;;7.13;;
20026;SDS011;10174;42.688;23.344;2023-02-23T11:58:37;18.48;;;7.75;;
20026;SDS011;10174;42.688;23.344;2023-02-23T12:01:05;20.67;;;9.57;;
20026;SDS011;10174;42.688;23.344;2023-02-23T12:03:37;13.02;;;6.82;;
20026;SDS011;10174;42.688;23.344;2023-02-23T12:06:13;10.85;;;6.78;;
20026;SDS011;10174;42.688;23.344;2023-02-23T12:09:21;12.00;;;6.60;;
20026;SDS011;10174;42.688;23.344;2023-02-23T12:11:53;12.40;;;6.65;;
20026;SDS011;10174;42.688;23.344;2023-02-23T12:17:05;10.90;;;6.75;;
20026;SDS011;10174;42.688;23.344;2023-02-23T12:19:54;11.93;;;6.65;;
20026;SDS011;10174;42.688;23.344;2023-02-23T12:22:36;16.23;;;6.30;;
20026;SDS011;10174;42.688;23.344;2023-02-23T12:25:26;19.65;;;9.32;;
20026;SDS011;10174;42.688;23.344;2023-02-23T12:28:01;13.18;;;6.45;;
20026;SDS011;10174;42.688;23.344;2023-02-23T12:30:50;28.52;;;8.88;;
20026;SDS011;10174;42.688;23.344;2023-02-23T12:33:35;21.70;;;10.43;;
20026;SDS011;10174;42.688;23.344;2023-02-23T12:36:25;18.40;;;6.72;;
20026;SDS011;10174;42.688;23.344;2023-02-23T12:50:31;16.75;;;7.70;;
20026;SDS011;10174;42.688;23.344;2023-02-23T12:55:53;20.10;;;8.40;;
20026;SDS011;10174;42.688;23.344;2023-02-23T12:58:31;16.60;;;7.18;;
20026;SDS011;10174;42.688;23.344;2023-02-23T13:01:07;15.35;;;6.88;;
20026;SDS011;10174;42.688;23.344;2023-02-23T13:06:27;13.15;;;6.82;;
20026;SDS011;10174;42.688;23.344;2023-02-23T13:14:26;21.88;;;7.13;;
20026;SDS011;10174;42.688;23.344;2023-02-23T13:17:03;16.98;;;7.03;;
20026;SDS011;10174;42.688;23.344;2023-02-23T13:19:44;12.07;;;6.85;;
20026;SDS011;10174;42.688;23.344;2023-02-23T13:24:43;17.77;;;6.72;;
20026;SDS011;10174;42.688;23.344;2023-02-23T13:29:51;16.27;;;7.18;;
20026;SDS011;10174;42.688;23.344;2023-02-23T13:37:16;18.33;;;7.80;;
20026;SDS011;10174;42.688;23.344;2023-02-23T13:45:03;18.10;;;7.57;;
20026;SDS011;10174;42.688;23.344;2023-02-23T13:50:46;21.90;;;9.52;;
20026;SDS011;10174;42.688;23.344;2023-02-23T13:56:21;17.08;;;7.72;;
20026;SDS011;10174;42.688;23.344;2023-02-23T13:58:50;25.85;;;7.65;;
20026;SDS011;10174;42.688;23.344;2023-02-23T14:01:23;11.38;;;5.90;;
20026;SDS011;10174;42.688;23.344;2023-02-23T14:03:55;12.85;;;6.28;;
20026;SDS011;10174;42.688;23.344;2023-02-23T14:06:24;15.75;;;6.38;;
20026;SDS011;10174;42.688;23.344;2023-02-23T14:09:17;14.70;;;6.55;;
20026;SDS011;10174;42.688;23.344;2023-02-23T14:14:11;21.77;;;8.90;;
20026;SDS011;10174;42.688;23.344;2023-02-23T14:16:41;16.40;;;7.32;;
20026;SDS011;10174;42.688;23.344;2023-02-23T14:19:29;17.98;;;6.30;;
20026;SDS011;10174;42.688;23.344;2023-02-23T14:22:00;17.50;;;6.47;;
20026;SDS011;10174;42.688;23.344;2023-02-23T14:24:30;14.55;;;6.20;;
20026;SDS011;10174;42.688;23.344;2023-02-23T14:32:41;23.83;;;7.45;;
20026;SDS011;10174;42.688;23.344;2023-02-23T14:37:55;18.17;;;8.43;;
20026;SDS011;10174;42.688;23.344;2023-02-23T14:40:38;24.50;;;8.98;;
20026;SDS011;10174;42.688;23.344;2023-02-23T14:46:10;27.48;;;9.13;;
20026;SDS011;10174;42.688;23.344;2023-02-23T14:48:43;24.50;;;8.32;;
20026;SDS011;10174;42.688;23.344;2023-02-23T14:51:21;18.80;;;8.57;;
20026;SDS011;10174;42.688;23.344;2023-02-23T14:54:22;17.23;;;8.23;;
20026;SDS011;10174;42.688;23.344;2023-02-23T14:56:49;24.05;;;9.10;;
20026;SDS011;10174;42.688;23.344;2023-02-23T14:59:23;15.48;;;7.35;;
20026;SDS011;10174;42.688;23.344;2023-02-23T15:01:54;20.83;;;7.85;;
20026;SDS011;10174;42.688;23.344;2023-02-23T15:04:24;18.65;;;7.90;;
20026;SDS011;10174;42.688;23.344;2023-02-23T15:06:54;17.90;;;7.60;;
20026;SDS011;10174;42.688;23.344;2023-02-23T15:12:02;17.75;;;8.93;;
20026;SDS011;10174;42.688;23.344;2023-02-23T15:14:36;16.20;;;7.38;;
20026;SDS011;10174;42.688;23.344;2023-02-23T15:17:02;13.85;;;7.43;;
20026;SDS011;10174;42.688;23.344;2023-02-23T15:19:33;15.75;;;8.10;;
20026;SDS011;10174;42.688;23.344;2023-02-23T15:22:00;19.85;;;8.82;;
20026;SDS011;10174;42.688;23.344;2023-02-23T15:24:38;29.48;;;9.10;;
20026;SDS011;10174;42.688;23.344;2023-02-23T15:27:18;18.70;;;8.50;;
20026;SDS011;10174;42.688;23.344;2023-02-23T15:29:47;21.77;;;8.48;;
20026;SDS011;10174;42.688;23.344;2023-02-23T15:32:17;17.92;;;8.77;;
20026;SDS011;10174;42.688;23.344;2023-02-23T15:34:42;23.60;;;9.30;;
20026;SDS011;10174;42.688;23.344;2023-02-23T15:37:19;23.45;;;9.75;;
20026;SDS011;10174;42.688;23.344;2023-02-23T15:39:53;22.23;;;10.70;;
20026;SDS011;10174;42.688;23.344;2023-02-23T15:42:24;27.25;;;11.48;;
20026;SDS011;10174;42.688;23.344;2023-02-23T15:44:59;29.25;;;11.57;;
20026;SDS011;10174;42.688;23.344;2023-02-23T15:47:31;34.97;;;11.52;;
20026;SDS011;10174;42.688;23.344;2023-02-23T15:49:59;25.73;;;10.63;;
20026;SDS011;10174;42.688;23.344;2023-02-23T15:52:32;31.98;;;11.45;;
20026;SDS011;10174;42.688;23.344;2023-02-23T15:55:08;22.88;;;10.35;;
20026;SDS011;10174;42.688;23.344;2023-02-23T15:57:45;23.90;;;10.60;;
20026;SDS011;10174;42.688;23.344;2023-02-23T16:00:21;24.15;;;11.80;;
20026;SDS011;10174;42.688;23.344;2023-02-23T16:02:56;22.90;;;10.15;;
20026;SDS011;10174;42.688;23.344;2023-02-23T16:05:23;30.42;;;10.98;;
20026;SDS011;10174;42.688;23.344;2023-02-23T16:10:25;20.15;;;8.15;;
20026;SDS011;10174;42.688;23.344;2023-02-23T16:12:52;21.23;;;10.45;;
20026;SDS011;10174;42.688;23.344;2023-02-23T16:15:26;21.70;;;9.65;;
20026;SDS011;10174;42.688;23.344;2023-02-23T16:17:57;26.20;;;10.57;;
20026;SDS011;10174;42.688;23.344;2023-02-23T16:20:37;17.50;;;9.02;;
20026;SDS011;10174;42.688;23.344;2023-02-23T16:26:10;28.73;;;9.65;;
20026;SDS011;10174;42.688;23.344;2023-02-23T16:28:40;20.58;;;9.95;;
20026;SDS011;10174;42.688;23.344;2023-02-23T16:31:08;21.23;;;9.77;;
20026;SDS011;10174;42.688;23.344;2023-02-23T16:38:56;28.77;;;10.95;;
20026;SDS011;10174;42.688;23.344;2023-02-23T16:41:24;22.88;;;10.93;;
20026;SDS011;10174;42.688;23.344;2023-02-23T16:43:52;27.63;;;11.30;;
20026;SDS011;10174;42.688;23.344;2023-02-23T16:46:20;25.05;;;12.00;;
20026;SDS011;10174;42.688;23.344;2023-02-23T16:48:48;29.67;;;11.20;;
20026;SDS011;10174;42.688;23.344;2023-02-23T16:51:15;22.50;;;10.48;;
20026;SDS011;10174;42.688;23.344;2023-02-23T16:53:42;23.20;;;10.48;;
20026;SDS011;10174;42.688;23.344;2023-02-23T16:56:09;24.23;;;11.32;;
20026;SDS011;10174;42.688;23.344;2023-02-23T16:58:38;25.10;;;12.05;;
20026;SDS011;10174;42.688;23.344;2023-02-23T17:01:05;26.80;;;11.45;;
20026;SDS011;10174;42.688;23.344;2023-02-23T17:03:31;28.60;;;10.90;;
20026;SDS011;10174;42.688;23.344;2023-02-23T17:05:57;26.35;;;12.18;;
20026;SDS011;10174;42.688;23.344;2023-02-23T17:08:22;35.00;;;12.30;;
20026;SDS011;10174;42.688;23.344;2023-02-23T17:10:48;26.55;;;11.98;;
20026;SDS011;10174;42.688;23.344;2023-02-23T17:13:17;25.25;;;11.73;;